sensor_id;sensor_type;location;lat;lon;timestamp;P1;durP1;ratioP1;P2;durP2;ratioP2
71767;SDS011;59604;52.138;5.446;2022-08-24T00:00:22;15.40;;;11.05;;
71767;SDS011;59604;52.138;5.446;2022-08-24T00:02:49;16.17;;;11.07;;
71767;SDS011;59604;52.138;5.446;2022-08-24T00:05:16;16.30;;;11.15;;
71767;SDS011;59604;52.138;5.446;2022-08-24T00:07:46;16.55;;;11.32;;
71767;SDS011;59604;52.138;5.446;2022-08-24T00:10:15;17.35;;;11.32;;
71767;SDS011;59604;52.138;5.446;2022-08-24T00:12:42;18.55;;;10.60;;
71767;SDS011;59604;52.138;5.446;2022-08-24T00:15:10;17.23;;;10.82;;
71767;SDS011;59604;52.138;5.446;2022-08-24T00:17:37;17.05;;;10.77;;
71767;SDS011;59604;52.138;5.446;2022-08-24T00:20:05;16.27;;;11.15;;
71767;SDS011;59604;52.138;5.446;2022-08-24T00:22:32;17.35;;;11.45;;
71767;SDS011;59604;52.138;5.446;2022-08-24T00:24:59;17.70;;;10.98;;
71767;SDS011;59604;52.138;5.446;2022-08-24T00:27:25;17.33;;;11.30;;
71767;SDS011;59604;52.138;5.446;2022-08-24T00:29:52;16.88;;;10.80;;
71767;SDS011;59604;52.138;5.446;2022-08-24T00:32:19;17.05;;;10.65;;
71767;SDS011;59604;52.138;5.446;2022-08-24T00:34:46;15.93;;;11.40;;
71767;SDS011;59604;52.138;5.446;2022-08-24T00:37:24;15.23;;;10.25;;
71767;SDS011;59604;52.138;5.446;2022-08-24T00:39:51;18.15;;;10.77;;
71767;SDS011;59604;52.138;5.446;2022-08-24T00:42:17;17.20;;;10.18;;
71767;SDS011;59604;52.138;5.446;2022-08-24T00:44:44;15.30;;;10.13;;
71767;SDS011;59604;52.138;5.446;2022-08-24T00:47:13;14.55;;;10.25;;
71767;SDS011;59604;52.138;5.446;2022-08-24T00:49:48;16.33;;;9.68;;
71767;SDS011;59604;52.138;5.446;2022-08-24T00:55:09;14.45;;;9.02;;
71767;SDS011;59604;52.138;5.446;2022-08-24T00:57:39;15.20;;;9.68;;
71767;SDS011;59604;52.138;5.446;2022-08-24T01:00:12;14.23;;;9.93;;
71767;SDS011;59604;52.138;5.446;2022-08-24T01:02:43;15.45;;;9.98;;
71767;SDS011;59604;52.138;5.446;2022-08-24T01:05:13;14.15;;;10.07;;
71767;SDS011;59604;52.138;5.446;2022-08-24T01:12:37;14.90;;;9.45;;
71767;SDS011;59604;52.138;5.446;2022-08-24T01:15:17;14.35;;;10.02;;
71767;SDS011;59604;52.138;5.446;2022-08-24T01:17:45;14.40;;;10.57;;
71767;SDS011;59604;52.138;5.446;2022-08-24T01:20:30;15.00;;;10.32;;
71767;SDS011;59604;52.138;5.446;2022-08-24T01:25:38;14.23;;;10.20;;
71767;SDS011;59604;52.138;5.446;2022-08-24T01:28:12;14.88;;;10.07;;
71767;SDS011;59604;52.138;5.446;2022-08-24T01:30:46;14.35;;;9.60;;
71767;SDS011;59604;52.138;5.446;2022-08-24T01:33:23;14.30;;;10.18;;
71767;SDS011;59604;52.138;5.446;2022-08-24T01:36:08;15.13;;;10.25;;
71767;SDS011;59604;52.138;5.446;2022-08-24T01:38:42;15.00;;;10.77;;
71767;SDS011;59604;52.138;5.446;2022-08-24T01:41:09;15.13;;;10.88;;
71767;SDS011;59604;52.138;5.446;2022-08-24T01:43:37;15.57;;;11.00;;
71767;SDS011;59604;52.138;5.446;2022-08-24T01:46:04;15.63;;;11.15;;
71767;SDS011;59604;52.138;5.446;2022-08-24T01:48:31;16.52;;;10.77;;
71767;SDS011;59604;52.138;5.446;2022-08-24T01:50:58;14.07;;;9.88;;
71767;SDS011;59604;52.138;5.446;2022-08-24T01:53:25;14.77;;;9.77;;
71767;SDS011;59604;52.138;5.446;2022-08-24T01:55:52;13.68;;;10.05;;
71767;SDS011;59604;52.138;5.446;2022-08-24T01:58:18;14.60;;;10.50;;
71767;SDS011;59604;52.138;5.446;2022-08-24T02:00:45;16.58;;;10.80;;
71767;SDS011;59604;52.138;5.446;2022-08-24T02:03:12;15.15;;;10.18;;
71767;SDS011;59604;52.138;5.446;2022-08-24T02:05:39;13.93;;;10.23;;
71767;SDS011;59604;52.138;5.446;2022-08-24T02:08:05;14.52;;;10.15;;
71767;SDS011;59604;52.138;5.446;2022-08-24T02:10:32;15.88;;;10.60;;
71767;SDS011;59604;52.138;5.446;2022-08-24T02:13:00;17.10;;;9.30;;
71767;SDS011;59604;52.138;5.446;2022-08-24T02:15:30;13.63;;;8.90;;
71767;SDS011;59604;52.138;5.446;2022-08-24T02:17:58;14.88;;;9.60;;
71767;SDS011;59604;52.138;5.446;2022-08-24T02:20:26;13.82;;;9.63;;
71767;SDS011;59604;52.138;5.446;2022-08-24T02:22:53;13.85;;;9.77;;
71767;SDS011;59604;52.138;5.446;2022-08-24T02:25:20;14.90;;;10.13;;
71767;SDS011;59604;52.138;5.446;2022-08-24T02:27:47;14.35;;;10.15;;
71767;SDS011;59604;52.138;5.446;2022-08-24T02:30:14;15.55;;;10.20;;
71767;SDS011;59604;52.138;5.446;2022-08-24T02:32:41;14.20;;;10.23;;
71767;SDS011;59604;52.138;5.446;2022-08-24T02:35:08;15.32;;;10.93;;
71767;SDS011;59604;52.138;5.446;2022-08-24T02:40:09;13.82;;;9.90;;
71767;SDS011;59604;52.138;5.446;2022-08-24T02:47:30;14.90;;;10.27;;
71767;SDS011;59604;52.138;5.446;2022-08-24T02:50:04;13.23;;;9.88;;
71767;SDS011;59604;52.138;5.446;2022-08-24T02:52:32;14.85;;;9.93;;
71767;SDS011;59604;52.138;5.446;2022-08-24T02:55:01;14.43;;;9.98;;
71767;SDS011;59604;52.138;5.446;2022-08-24T02:57:27;15.20;;;10.65;;
71767;SDS011;59604;52.138;5.446;2022-08-24T02:59:54;15.45;;;10.65;;
71767;SDS011;59604;52.138;5.446;2022-08-24T03:02:20;13.93;;;9.98;;
71767;SDS011;59604;52.138;5.446;2022-08-24T03:04:47;14.07;;;10.43;;
71767;SDS011;59604;52.138;5.446;2022-08-24T03:07:14;15.68;;;9.98;;
71767;SDS011;59604;52.138;5.446;2022-08-24T03:09:41;15.40;;;11.30;;
71767;SDS011;59604;52.138;5.446;2022-08-24T03:12:07;14.93;;;9.88;;
71767;SDS011;59604;52.138;5.446;2022-08-24T03:14:34;14.98;;;10.02;;
71767;SDS011;59604;52.138;5.446;2022-08-24T03:17:01;13.60;;;9.18;;
71767;SDS011;59604;52.138;5.446;2022-08-24T03:19:28;14.30;;;9.98;;
71767;SDS011;59604;52.138;5.446;2022-08-24T03:21:55;14.88;;;10.23;;
71767;SDS011;59604;52.138;5.446;2022-08-24T03:24:22;15.38;;;10.20;;
71767;SDS011;59604;52.138;5.446;2022-08-24T03:26:49;11.73;;;8.77;;
71767;SDS011;59604;52.138;5.446;2022-08-24T03:29:15;11.93;;;8.77;;
71767;SDS011;59604;52.138;5.446;2022-08-24T03:31:42;13.35;;;8.88;;
71767;SDS011;59604;52.138;5.446;2022-08-24T03:34:09;11.48;;;8.38;;
71767;SDS011;59604;52.138;5.446;2022-08-24T03:36:41;12.75;;;8.40;;
71767;SDS011;59604;52.138;5.446;2022-08-24T03:39:12;12.00;;;8.52;;
71767;SDS011;59604;52.138;5.446;2022-08-24T03:41:40;12.65;;;8.18;;
71767;SDS011;59604;52.138;5.446;2022-08-24T03:44:06;11.23;;;8.05;;
71767;SDS011;59604;52.138;5.446;2022-08-24T03:46:34;12.05;;;8.07;;
71767;SDS011;59604;52.138;5.446;2022-08-24T03:49:06;11.00;;;7.78;;
71767;SDS011;59604;52.138;5.446;2022-08-24T03:51:34;11.70;;;8.38;;
71767;SDS011;59604;52.138;5.446;2022-08-24T03:54:03;11.85;;;8.73;;
71767;SDS011;59604;52.138;5.446;2022-08-24T03:56:31;13.32;;;9.15;;
71767;SDS011;59604;52.138;5.446;2022-08-24T03:58:58;12.07;;;8.70;;
71767;SDS011;59604;52.138;5.446;2022-08-24T04:01:24;12.52;;;8.95;;
71767;SDS011;59604;52.138;5.446;2022-08-24T04:03:52;14.95;;;9.02;;
71767;SDS011;59604;52.138;5.446;2022-08-24T04:06:19;13.10;;;9.23;;
71767;SDS011;59604;52.138;5.446;2022-08-24T04:08:48;13.77;;;9.25;;
71767;SDS011;59604;52.138;5.446;2022-08-24T04:11:17;12.85;;;9.10;;
71767;SDS011;59604;52.138;5.446;2022-08-24T04:13:45;10.93;;;8.38;;
71767;SDS011;59604;52.138;5.446;2022-08-24T04:16:14;11.68;;;8.80;;
71767;SDS011;59604;52.138;5.446;2022-08-24T04:18:43;11.48;;;7.85;;
71767;SDS011;59604;52.138;5.446;2022-08-24T04:21:17;11.93;;;8.20;;
71767;SDS011;59604;52.138;5.446;2022-08-24T04:23:48;11.23;;;8.32;;
71767;SDS011;59604;52.138;5.446;2022-08-24T04:26:15;13.13;;;8.55;;
71767;SDS011;59604;52.138;5.446;2022-08-24T04:29:04;13.98;;;8.20;;
71767;SDS011;59604;52.138;5.446;2022-08-24T04:31:35;11.38;;;8.45;;
71767;SDS011;59604;52.138;5.446;2022-08-24T04:34:03;13.63;;;8.77;;
71767;SDS011;59604;52.138;5.446;2022-08-24T04:36:30;12.30;;;9.63;;
71767;SDS011;59604;52.138;5.446;2022-08-24T04:38:57;11.55;;;8.85;;
71767;SDS011;59604;52.138;5.446;2022-08-24T04:41:26;12.38;;;8.98;;
71767;SDS011;59604;52.138;5.446;2022-08-24T04:43:57;11.68;;;8.85;;
71767;SDS011;59604;52.138;5.446;2022-08-24T04:46:24;11.18;;;8.32;;
71767;SDS011;59604;52.138;5.446;2022-08-24T04:48:52;12.50;;;8.95;;
71767;SDS011;59604;52.138;5.446;2022-08-24T04:51:18;10.68;;;8.35;;
71767;SDS011;59604;52.138;5.446;2022-08-24T04:53:46;11.57;;;8.27;;
71767;SDS011;59604;52.138;5.446;2022-08-24T04:56:23;11.23;;;8.40;;
71767;SDS011;59604;52.138;5.446;2022-08-24T04:58:53;14.25;;;9.20;;
71767;SDS011;59604;52.138;5.446;2022-08-24T05:01:21;12.20;;;8.85;;
71767;SDS011;59604;52.138;5.446;2022-08-24T05:03:51;12.45;;;9.13;;
71767;SDS011;59604;52.138;5.446;2022-08-24T05:06:20;11.40;;;8.85;;
71767;SDS011;59604;52.138;5.446;2022-08-24T05:08:49;12.05;;;8.82;;
71767;SDS011;59604;52.138;5.446;2022-08-24T05:11:16;11.70;;;9.32;;
71767;SDS011;59604;52.138;5.446;2022-08-24T05:16:12;11.30;;;9.77;;
71767;SDS011;59604;52.138;5.446;2022-08-24T05:18:41;12.75;;;9.90;;
71767;SDS011;59604;52.138;5.446;2022-08-24T05:21:12;14.18;;;10.00;;
71767;SDS011;59604;52.138;5.446;2022-08-24T05:23:40;13.40;;;10.18;;
71767;SDS011;59604;52.138;5.446;2022-08-24T05:26:11;13.38;;;10.02;;
71767;SDS011;59604;52.138;5.446;2022-08-24T05:28:41;12.70;;;9.95;;
71767;SDS011;59604;52.138;5.446;2022-08-24T05:31:10;12.95;;;9.77;;
71767;SDS011;59604;52.138;5.446;2022-08-24T05:33:39;13.77;;;10.05;;
71767;SDS011;59604;52.138;5.446;2022-08-24T05:36:16;14.93;;;9.98;;
71767;SDS011;59604;52.138;5.446;2022-08-24T05:38:46;15.07;;;10.70;;
71767;SDS011;59604;52.138;5.446;2022-08-24T05:41:14;16.25;;;10.68;;
71767;SDS011;59604;52.138;5.446;2022-08-24T05:43:41;15.18;;;10.23;;
71767;SDS011;59604;52.138;5.446;2022-08-24T05:46:08;14.45;;;10.15;;
71767;SDS011;59604;52.138;5.446;2022-08-24T05:48:35;14.88;;;10.68;;
71767;SDS011;59604;52.138;5.446;2022-08-24T05:51:02;14.43;;;10.68;;
71767;SDS011;59604;52.138;5.446;2022-08-24T05:53:30;17.05;;;10.80;;
71767;SDS011;59604;52.138;5.446;2022-08-24T05:55:57;13.15;;;9.88;;
71767;SDS011;59604;52.138;5.446;2022-08-24T05:58:27;16.85;;;11.85;;
71767;SDS011;59604;52.138;5.446;2022-08-24T06:00:56;16.80;;;11.02;;
71767;SDS011;59604;52.138;5.446;2022-08-24T06:03:25;14.98;;;10.88;;
71767;SDS011;59604;52.138;5.446;2022-08-24T06:05:52;19.27;;;12.85;;
71767;SDS011;59604;52.138;5.446;2022-08-24T06:08:20;21.33;;;14.20;;
71767;SDS011;59604;52.138;5.446;2022-08-24T06:10:47;24.55;;;16.40;;
71767;SDS011;59604;52.138;5.446;2022-08-24T06:13:14;25.20;;;16.92;;
71767;SDS011;59604;52.138;5.446;2022-08-24T06:15:41;27.13;;;18.63;;
71767;SDS011;59604;52.138;5.446;2022-08-24T06:18:24;25.75;;;16.98;;
71767;SDS011;59604;52.138;5.446;2022-08-24T06:20:51;26.70;;;18.65;;
71767;SDS011;59604;52.138;5.446;2022-08-24T06:23:23;24.95;;;18.30;;
71767;SDS011;59604;52.138;5.446;2022-08-24T06:25:49;28.92;;;20.00;;
71767;SDS011;59604;52.138;5.446;2022-08-24T06:28:40;28.92;;;18.63;;
71767;SDS011;59604;52.138;5.446;2022-08-24T06:31:06;29.70;;;20.48;;
71767;SDS011;59604;52.138;5.446;2022-08-24T06:33:33;29.70;;;21.13;;
71767;SDS011;59604;52.138;5.446;2022-08-24T06:35:59;27.00;;;19.35;;
71767;SDS011;59604;52.138;5.446;2022-08-24T06:38:27;32.40;;;22.75;;
71767;SDS011;59604;52.138;5.446;2022-08-24T06:40:54;33.38;;;21.73;;
71767;SDS011;59604;52.138;5.446;2022-08-24T06:43:20;34.25;;;22.48;;
71767;SDS011;59604;52.138;5.446;2022-08-24T06:45:49;36.72;;;22.90;;
71767;SDS011;59604;52.138;5.446;2022-08-24T06:48:17;34.08;;;23.65;;
71767;SDS011;59604;52.138;5.446;2022-08-24T06:50:43;32.53;;;22.40;;
71767;SDS011;59604;52.138;5.446;2022-08-24T06:53:10;36.13;;;23.70;;
71767;SDS011;59604;52.138;5.446;2022-08-24T06:55:48;36.60;;;23.08;;
71767;SDS011;59604;52.138;5.446;2022-08-24T06:58:17;34.85;;;22.20;;
71767;SDS011;59604;52.138;5.446;2022-08-24T07:00:45;31.92;;;21.75;;
71767;SDS011;59604;52.138;5.446;2022-08-24T07:03:12;31.08;;;21.95;;
71767;SDS011;59604;52.138;5.446;2022-08-24T07:08:14;29.88;;;20.35;;
71767;SDS011;59604;52.138;5.446;2022-08-24T07:10:41;34.97;;;22.50;;
71767;SDS011;59604;52.138;5.446;2022-08-24T07:13:07;33.55;;;22.08;;
71767;SDS011;59604;52.138;5.446;2022-08-24T07:15:36;32.05;;;21.70;;
71767;SDS011;59604;52.138;5.446;2022-08-24T07:18:03;24.33;;;16.60;;
71767;SDS011;59604;52.138;5.446;2022-08-24T07:20:29;28.10;;;18.60;;
71767;SDS011;59604;52.138;5.446;2022-08-24T07:22:56;32.38;;;23.15;;
71767;SDS011;59604;52.138;5.446;2022-08-24T07:25:22;34.88;;;23.75;;
71767;SDS011;59604;52.138;5.446;2022-08-24T07:27:50;28.90;;;18.45;;
71767;SDS011;59604;52.138;5.446;2022-08-24T07:30:17;33.88;;;21.80;;
71767;SDS011;59604;52.138;5.446;2022-08-24T07:32:53;32.95;;;22.60;;
71767;SDS011;59604;52.138;5.446;2022-08-24T07:35:22;35.38;;;24.00;;
71767;SDS011;59604;52.138;5.446;2022-08-24T07:37:53;34.20;;;22.70;;
71767;SDS011;59604;52.138;5.446;2022-08-24T07:40:21;26.45;;;17.77;;
71767;SDS011;59604;52.138;5.446;2022-08-24T07:42:49;27.92;;;19.40;;
71767;SDS011;59604;52.138;5.446;2022-08-24T07:45:16;35.40;;;23.65;;
71767;SDS011;59604;52.138;5.446;2022-08-24T07:47:43;33.55;;;23.05;;
71767;SDS011;59604;52.138;5.446;2022-08-24T07:50:20;29.42;;;22.35;;
71767;SDS011;59604;52.138;5.446;2022-08-24T07:52:47;29.80;;;21.05;;
71767;SDS011;59604;52.138;5.446;2022-08-24T07:55:14;29.70;;;19.92;;
71767;SDS011;59604;52.138;5.446;2022-08-24T07:57:40;29.55;;;19.10;;
71767;SDS011;59604;52.138;5.446;2022-08-24T08:00:10;30.23;;;19.98;;
71767;SDS011;59604;52.138;5.446;2022-08-24T08:02:40;26.13;;;17.45;;
71767;SDS011;59604;52.138;5.446;2022-08-24T08:05:11;30.20;;;19.33;;
71767;SDS011;59604;52.138;5.446;2022-08-24T08:07:39;25.95;;;18.20;;
71767;SDS011;59604;52.138;5.446;2022-08-24T08:10:06;28.92;;;21.15;;
71767;SDS011;59604;52.138;5.446;2022-08-24T08:12:34;25.52;;;18.02;;
71767;SDS011;59604;52.138;5.446;2022-08-24T08:15:01;27.38;;;20.27;;
71767;SDS011;59604;52.138;5.446;2022-08-24T08:17:29;28.33;;;18.70;;
71767;SDS011;59604;52.138;5.446;2022-08-24T08:19:57;26.98;;;19.05;;
71767;SDS011;59604;52.138;5.446;2022-08-24T08:22:23;24.92;;;17.10;;
71767;SDS011;59604;52.138;5.446;2022-08-24T08:25:09;26.60;;;17.42;;
71767;SDS011;59604;52.138;5.446;2022-08-24T08:27:35;26.27;;;18.27;;
71767;SDS011;59604;52.138;5.446;2022-08-24T08:30:03;26.52;;;18.42;;
71767;SDS011;59604;52.138;5.446;2022-08-24T08:32:31;25.15;;;16.42;;
71767;SDS011;59604;52.138;5.446;2022-08-24T08:34:57;25.88;;;18.42;;
71767;SDS011;59604;52.138;5.446;2022-08-24T08:37:27;28.75;;;17.63;;
71767;SDS011;59604;52.138;5.446;2022-08-24T08:39:54;25.08;;;16.10;;
71767;SDS011;59604;52.138;5.446;2022-08-24T08:45:29;24.67;;;15.55;;
71767;SDS011;59604;52.138;5.446;2022-08-24T08:48:09;22.98;;;16.65;;
71767;SDS011;59604;52.138;5.446;2022-08-24T09:22:36;11.05;;;6.05;;
71767;SDS011;59604;52.138;5.446;2022-08-24T09:25:14;8.88;;;5.47;;
71767;SDS011;59604;52.138;5.446;2022-08-24T09:36:18;7.80;;;4.30;;
71767;SDS011;59604;52.138;5.446;2022-08-24T09:39:30;8.40;;;3.75;;
71767;SDS011;59604;52.138;5.446;2022-08-24T09:55:47;4.47;;;2.22;;
71767;SDS011;59604;52.138;5.446;2022-08-24T10:01:28;4.38;;;2.28;;
71767;SDS011;59604;52.138;5.446;2022-08-24T10:04:13;4.35;;;2.40;;
71767;SDS011;59604;52.138;5.446;2022-08-24T10:12:52;5.15;;;2.53;;
71767;SDS011;59604;52.138;5.446;2022-08-24T10:15:25;4.35;;;2.50;;
71767;SDS011;59604;52.138;5.446;2022-08-24T10:21:17;4.97;;;2.40;;
71767;SDS011;59604;52.138;5.446;2022-08-24T10:27:01;4.85;;;2.40;;
71767;SDS011;59604;52.138;5.446;2022-08-24T10:35:36;4.63;;;2.47;;
71767;SDS011;59604;52.138;5.446;2022-08-24T10:46:52;5.10;;;2.20;;
71767;SDS011;59604;52.138;5.446;2022-08-24T10:54:49;4.88;;;2.15;;
71767;SDS011;59604;52.138;5.446;2022-08-24T10:57:19;3.72;;;2.00;;
71767;SDS011;59604;52.138;5.446;2022-08-24T11:02:48;3.90;;;1.85;;
71767;SDS011;59604;52.138;5.446;2022-08-24T11:05:32;3.75;;;1.77;;
71767;SDS011;59604;52.138;5.446;2022-08-24T11:08:05;4.30;;;1.90;;
71767;SDS011;59604;52.138;5.446;2022-08-24T11:10:34;4.88;;;1.90;;
71767;SDS011;59604;52.138;5.446;2022-08-24T11:15:46;5.03;;;1.55;;
71767;SDS011;59604;52.138;5.446;2022-08-24T11:18:16;3.60;;;1.50;;
71767;SDS011;59604;52.138;5.446;2022-08-24T11:20:45;3.30;;;1.60;;
71767;SDS011;59604;52.138;5.446;2022-08-24T11:25:50;3.25;;;1.60;;
71767;SDS011;59604;52.138;5.446;2022-08-24T11:28:26;3.33;;;1.30;;
71767;SDS011;59604;52.138;5.446;2022-08-24T11:30:58;5.90;;;1.70;;
71767;SDS011;59604;52.138;5.446;2022-08-24T11:33:33;3.28;;;1.30;;
71767;SDS011;59604;52.138;5.446;2022-08-24T11:36:16;3.50;;;1.60;;
71767;SDS011;59604;52.138;5.446;2022-08-24T11:38:46;3.95;;;1.60;;
71767;SDS011;59604;52.138;5.446;2022-08-24T11:44:04;7.32;;;1.77;;
71767;SDS011;59604;52.138;5.446;2022-08-24T11:46:48;3.90;;;1.75;;
71767;SDS011;59604;52.138;5.446;2022-08-24T11:52:07;4.57;;;1.70;;
71767;SDS011;59604;52.138;5.446;2022-08-24T11:54:53;5.72;;;1.63;;
71767;SDS011;59604;52.138;5.446;2022-08-24T11:57:30;3.40;;;1.50;;
71767;SDS011;59604;52.138;5.446;2022-08-24T12:00:15;4.78;;;1.52;;
71767;SDS011;59604;52.138;5.446;2022-08-24T12:08:35;4.55;;;1.63;;
71767;SDS011;59604;52.138;5.446;2022-08-24T12:11:15;3.95;;;1.50;;
71767;SDS011;59604;52.138;5.446;2022-08-24T12:13:57;4.05;;;1.60;;
71767;SDS011;59604;52.138;5.446;2022-08-24T12:19:48;4.43;;;1.48;;
71767;SDS011;59604;52.138;5.446;2022-08-24T12:22:18;4.95;;;1.67;;
71767;SDS011;59604;52.138;5.446;2022-08-24T12:24:48;6.00;;;1.90;;
71767;SDS011;59604;52.138;5.446;2022-08-24T12:30:03;3.33;;;1.60;;
71767;SDS011;59604;52.138;5.446;2022-08-24T12:32:37;4.05;;;1.80;;
71767;SDS011;59604;52.138;5.446;2022-08-24T12:37:58;3.55;;;1.50;;
71767;SDS011;59604;52.138;5.446;2022-08-24T12:43:24;3.60;;;1.55;;
71767;SDS011;59604;52.138;5.446;2022-08-24T12:45:59;3.88;;;1.40;;
71767;SDS011;59604;52.138;5.446;2022-08-24T12:48:34;3.20;;;1.55;;
71767;SDS011;59604;52.138;5.446;2022-08-24T12:56:34;4.28;;;1.40;;
71767;SDS011;59604;52.138;5.446;2022-08-24T12:59:22;4.72;;;1.50;;
71767;SDS011;59604;52.138;5.446;2022-08-24T13:01:59;5.07;;;1.52;;
71767;SDS011;59604;52.138;5.446;2022-08-24T13:04:39;3.63;;;1.40;;
71767;SDS011;59604;52.138;5.446;2022-08-24T13:17:49;3.38;;;1.52;;
71767;SDS011;59604;52.138;5.446;2022-08-24T13:21:14;3.88;;;1.50;;
71767;SDS011;59604;52.138;5.446;2022-08-24T13:23:16;3.50;;;1.42;;
71767;SDS011;59604;52.138;5.446;2022-08-24T13:38:57;3.28;;;1.50;;
71767;SDS011;59604;52.138;5.446;2022-08-24T13:47:14;4.05;;;1.60;;
71767;SDS011;59604;52.138;5.446;2022-08-24T13:49:58;3.15;;;1.40;;
71767;SDS011;59604;52.138;5.446;2022-08-24T13:52:49;3.85;;;1.58;;
71767;SDS011;59604;52.138;5.446;2022-08-24T14:11:11;4.13;;;1.42;;
71767;SDS011;59604;52.138;5.446;2022-08-24T14:19:21;3.60;;;1.80;;
71767;SDS011;59604;52.138;5.446;2022-08-24T14:24:29;4.03;;;1.85;;
71767;SDS011;59604;52.138;5.446;2022-08-24T14:27:08;5.68;;;2.00;;
71767;SDS011;59604;52.138;5.446;2022-08-24T14:35:34;4.53;;;1.80;;
71767;SDS011;59604;52.138;5.446;2022-08-24T14:38:15;5.10;;;2.20;;
71767;SDS011;59604;52.138;5.446;2022-08-24T14:49:42;5.13;;;1.80;;
71767;SDS011;59604;52.138;5.446;2022-08-24T14:55:27;3.70;;;1.67;;
71767;SDS011;59604;52.138;5.446;2022-08-24T15:01:02;4.82;;;2.00;;
71767;SDS011;59604;52.138;5.446;2022-08-24T15:03:50;4.25;;;2.00;;
71767;SDS011;59604;52.138;5.446;2022-08-24T15:11:53;9.57;;;2.38;;
71767;SDS011;59604;52.138;5.446;2022-08-24T15:17:18;3.60;;;1.75;;
71767;SDS011;59604;52.138;5.446;2022-08-24T15:19:50;4.78;;;1.98;;
71767;SDS011;59604;52.138;5.446;2022-08-24T15:22:25;3.50;;;1.80;;
71767;SDS011;59604;52.138;5.446;2022-08-24T15:25:06;6.80;;;1.85;;
71767;SDS011;59604;52.138;5.446;2022-08-24T15:27:47;5.45;;;1.90;;
71767;SDS011;59604;52.138;5.446;2022-08-24T15:32:53;5.95;;;2.38;;
71767;SDS011;59604;52.138;5.446;2022-08-24T15:35:31;4.03;;;1.95;;
71767;SDS011;59604;52.138;5.446;2022-08-24T15:38:14;3.92;;;2.00;;
71767;SDS011;59604;52.138;5.446;2022-08-24T15:41:02;4.32;;;1.90;;
71767;SDS011;59604;52.138;5.446;2022-08-24T15:43:35;4.75;;;2.10;;
71767;SDS011;59604;52.138;5.446;2022-08-24T15:46:07;4.28;;;1.90;;
71767;SDS011;59604;52.138;5.446;2022-08-24T15:48:34;5.32;;;2.05;;
71767;SDS011;59604;52.138;5.446;2022-08-24T15:51:02;4.60;;;2.05;;
71767;SDS011;59604;52.138;5.446;2022-08-24T15:53:31;4.88;;;2.00;;
71767;SDS011;59604;52.138;5.446;2022-08-24T15:58:46;4.60;;;2.78;;
71767;SDS011;59604;52.138;5.446;2022-08-24T16:04:00;5.75;;;1.90;;
71767;SDS011;59604;52.138;5.446;2022-08-24T16:08:58;4.57;;;2.00;;
71767;SDS011;59604;52.138;5.446;2022-08-24T16:11:39;7.30;;;2.10;;
71767;SDS011;59604;52.138;5.446;2022-08-24T16:14:14;4.03;;;1.90;;
71767;SDS011;59604;52.138;5.446;2022-08-24T16:16:51;5.95;;;1.98;;
71767;SDS011;59604;52.138;5.446;2022-08-24T16:19:28;4.25;;;1.90;;
71767;SDS011;59604;52.138;5.446;2022-08-24T16:22:03;3.90;;;2.20;;
71767;SDS011;59604;52.138;5.446;2022-08-24T16:24:33;4.18;;;2.00;;
71767;SDS011;59604;52.138;5.446;2022-08-24T16:37:39;5.70;;;2.30;;
71767;SDS011;59604;52.138;5.446;2022-08-24T16:40:06;3.53;;;1.92;;
71767;SDS011;59604;52.138;5.446;2022-08-24T16:42:34;4.18;;;2.28;;
71767;SDS011;59604;52.138;5.446;2022-08-24T16:45:02;4.65;;;2.22;;
71767;SDS011;59604;52.138;5.446;2022-08-24T16:47:30;6.28;;;2.20;;
71767;SDS011;59604;52.138;5.446;2022-08-24T16:49:57;4.60;;;3.05;;
71767;SDS011;59604;52.138;5.446;2022-08-24T16:52:24;5.22;;;2.33;;
71767;SDS011;59604;52.138;5.446;2022-08-24T16:54:50;3.85;;;2.00;;
71767;SDS011;59604;52.138;5.446;2022-08-24T16:57:21;4.07;;;2.10;;
71767;SDS011;59604;52.138;5.446;2022-08-24T16:59:50;4.78;;;2.33;;
71767;SDS011;59604;52.138;5.446;2022-08-24T17:02:18;4.97;;;2.33;;
71767;SDS011;59604;52.138;5.446;2022-08-24T17:04:47;5.35;;;2.13;;
71767;SDS011;59604;52.138;5.446;2022-08-24T17:07:15;4.97;;;2.38;;
71767;SDS011;59604;52.138;5.446;2022-08-24T17:09:54;5.80;;;2.50;;
71767;SDS011;59604;52.138;5.446;2022-08-24T17:12:21;5.47;;;2.58;;
71767;SDS011;59604;52.138;5.446;2022-08-24T17:14:48;4.47;;;2.17;;
71767;SDS011;59604;52.138;5.446;2022-08-24T17:17:16;3.83;;;2.08;;
71767;SDS011;59604;52.138;5.446;2022-08-24T17:19:50;4.68;;;2.42;;
71767;SDS011;59604;52.138;5.446;2022-08-24T17:22:19;4.85;;;2.20;;
71767;SDS011;59604;52.138;5.446;2022-08-24T17:24:47;4.25;;;2.10;;
71767;SDS011;59604;52.138;5.446;2022-08-24T17:27:15;5.50;;;2.60;;
71767;SDS011;59604;52.138;5.446;2022-08-24T17:29:45;5.03;;;2.00;;
71767;SDS011;59604;52.138;5.446;2022-08-24T17:32:12;3.95;;;1.98;;
71767;SDS011;59604;52.138;5.446;2022-08-24T17:34:39;6.80;;;2.20;;
71767;SDS011;59604;52.138;5.446;2022-08-24T17:37:06;4.38;;;2.22;;
71767;SDS011;59604;52.138;5.446;2022-08-24T17:39:33;4.07;;;2.30;;
71767;SDS011;59604;52.138;5.446;2022-08-24T17:42:00;4.90;;;2.10;;
71767;SDS011;59604;52.138;5.446;2022-08-24T17:44:29;5.32;;;2.00;;
71767;SDS011;59604;52.138;5.446;2022-08-24T17:46:59;4.28;;;2.00;;
71767;SDS011;59604;52.138;5.446;2022-08-24T17:49:29;4.93;;;2.30;;
71767;SDS011;59604;52.138;5.446;2022-08-24T17:51:57;4.93;;;2.40;;
71767;SDS011;59604;52.138;5.446;2022-08-24T17:54:23;5.22;;;2.40;;
71767;SDS011;59604;52.138;5.446;2022-08-24T17:56:53;4.85;;;2.45;;
71767;SDS011;59604;52.138;5.446;2022-08-24T17:59:24;4.72;;;2.10;;
71767;SDS011;59604;52.138;5.446;2022-08-24T18:01:59;5.97;;;2.30;;
71767;SDS011;59604;52.138;5.446;2022-08-24T18:04:32;5.60;;;2.63;;
71767;SDS011;59604;52.138;5.446;2022-08-24T18:07:00;4.95;;;2.20;;
71767;SDS011;59604;52.138;5.446;2022-08-24T18:09:39;5.20;;;2.10;;
71767;SDS011;59604;52.138;5.446;2022-08-24T18:12:11;5.03;;;2.20;;
71767;SDS011;59604;52.138;5.446;2022-08-24T18:14:37;4.38;;;2.03;;
71767;SDS011;59604;52.138;5.446;2022-08-24T18:17:04;6.70;;;2.40;;
71767;SDS011;59604;52.138;5.446;2022-08-24T18:19:34;4.65;;;2.10;;
71767;SDS011;59604;52.138;5.446;2022-08-24T18:22:02;4.07;;;2.30;;
71767;SDS011;59604;52.138;5.446;2022-08-24T18:27:03;4.90;;;2.20;;
71767;SDS011;59604;52.138;5.446;2022-08-24T18:29:35;4.53;;;2.20;;
71767;SDS011;59604;52.138;5.446;2022-08-24T18:32:04;4.78;;;2.00;;
71767;SDS011;59604;52.138;5.446;2022-08-24T18:34:31;4.32;;;2.05;;
71767;SDS011;59604;52.138;5.446;2022-08-24T18:36:59;5.82;;;2.30;;
71767;SDS011;59604;52.138;5.446;2022-08-24T18:39:25;4.22;;;2.15;;
71767;SDS011;59604;52.138;5.446;2022-08-24T18:41:52;4.78;;;2.30;;
71767;SDS011;59604;52.138;5.446;2022-08-24T18:44:21;3.88;;;2.08;;
71767;SDS011;59604;52.138;5.446;2022-08-24T18:46:53;4.82;;;2.10;;
71767;SDS011;59604;52.138;5.446;2022-08-24T18:49:19;4.70;;;2.40;;
71767;SDS011;59604;52.138;5.446;2022-08-24T18:51:46;4.85;;;2.55;;
71767;SDS011;59604;52.138;5.446;2022-08-24T18:54:15;5.13;;;2.95;;
71767;SDS011;59604;52.138;5.446;2022-08-24T18:56:44;5.45;;;2.45;;
71767;SDS011;59604;52.138;5.446;2022-08-24T18:59:11;3.80;;;2.08;;
71767;SDS011;59604;52.138;5.446;2022-08-24T19:01:41;5.53;;;2.28;;
71767;SDS011;59604;52.138;5.446;2022-08-24T19:04:27;4.32;;;2.30;;
71767;SDS011;59604;52.138;5.446;2022-08-24T19:06:58;4.05;;;2.40;;
71767;SDS011;59604;52.138;5.446;2022-08-24T19:09:26;4.60;;;2.70;;
71767;SDS011;59604;52.138;5.446;2022-08-24T19:11:59;5.80;;;2.80;;
71767;SDS011;59604;52.138;5.446;2022-08-24T19:14:25;5.97;;;2.85;;